createdAt,value
2022-09-07T00:00:16.581Z,9.00
2022-09-07T00:02:44.489Z,9.37
2022-09-07T00:05:12.448Z,10.03
2022-09-07T00:07:40.339Z,9.80
2022-09-07T00:10:10.578Z,13.07
2022-09-07T00:12:38.507Z,10.73
2022-09-07T00:15:09.326Z,9.73
2022-09-07T00:17:37.438Z,10.03
2022-09-07T00:20:07.551Z,9.23
2022-09-07T00:22:36.211Z,8.93
2022-09-07T00:25:04.196Z,6.93
2022-09-07T00:27:33.699Z,6.70
2022-09-07T00:30:01.624Z,5.43
2022-09-07T00:32:29.509Z,6.07
2022-09-07T00:34:57.387Z,5.37
2022-09-07T00:37:25.489Z,5.80
2022-09-07T00:39:53.720Z,5.50
2022-09-07T00:42:22.423Z,6.40
2022-09-07T00:45:08.210Z,5.53
2022-09-07T00:47:42.706Z,5.00
2022-09-07T00:50:15.797Z,4.90
2022-09-07T00:52:45.859Z,5.53
2022-09-07T00:55:16.535Z,5.27
2022-09-07T00:57:49.177Z,6.13
2022-09-07T01:00:18.970Z,5.40
2022-09-07T01:02:50.280Z,6.90
2022-09-07T01:05:24.404Z,4.90
2022-09-07T01:07:54.999Z,5.20
2022-09-07T01:10:25.753Z,5.80
2022-09-07T01:12:53.800Z,5.73
2022-09-07T01:15:26.920Z,4.80
2022-09-07T01:18:04.605Z,7.83
2022-09-07T01:20:41.028Z,5.53
2022-09-07T01:23:50.028Z,4.33
2022-09-07T01:26:43.735Z,5.40
2022-09-07T01:29:18.987Z,6.27
2022-09-07T01:31:55.004Z,5.73
2022-09-07T01:34:24.754Z,4.67
2022-09-07T01:36:59.787Z,5.87
2022-09-07T01:39:31.432Z,4.77
2022-09-07T01:42:05.480Z,5.67
2022-09-07T01:44:39.835Z,7.03
2022-09-07T01:47:12.011Z,5.80
2022-09-07T01:49:43.707Z,4.50
2022-09-07T01:52:17.855Z,4.40
2022-09-07T01:54:51.374Z,5.37
2022-09-07T01:57:26.096Z,5.87
2022-09-07T02:00:02.468Z,4.57
2022-09-07T02:02:45.754Z,5.37
2022-09-07T02:05:18.419Z,4.43
2022-09-07T02:07:49.318Z,5.63
2022-09-07T02:10:22.858Z,4.70
2022-09-07T02:12:54.415Z,4.90
2022-09-07T02:15:28.710Z,7.47
2022-09-07T02:18:03.258Z,4.47
2022-09-07T02:20:35.976Z,5.50
2022-09-07T02:23:07.858Z,5.70
2022-09-07T02:25:41.507Z,4.90
2022-09-07T02:28:13.619Z,4.90
2022-09-07T02:30:43.191Z,6.87
2022-09-07T02:33:11.343Z,5.60
2022-09-07T02:35:39.423Z,6.10
2022-09-07T02:38:08.393Z,7.07
2022-09-07T02:40:36.302Z,5.53
2022-09-07T02:43:07.288Z,5.13
2022-09-07T02:45:48.339Z,5.40
2022-09-07T02:48:22.936Z,5.60
2022-09-07T02:51:07.496Z,5.20
2022-09-07T02:53:50.722Z,5.57
2022-09-07T02:56:30.962Z,5.20
2022-09-07T02:59:07.711Z,5.50
2022-09-07T03:01:46.524Z,5.37
2022-09-07T03:04:20.951Z,6.10
2022-09-07T03:06:53.380Z,6.50
2022-09-07T03:09:25.191Z,6.23
2022-09-07T03:11:53.262Z,6.60
2022-09-07T03:14:23.175Z,6.73
2022-09-07T03:16:55.883Z,5.20
2022-09-07T03:19:24.040Z,5.50
2022-09-07T03:21:52.131Z,5.37
2022-09-07T03:24:20.484Z,5.40
2022-09-07T03:26:50.445Z,5.57
2022-09-07T03:29:19.077Z,5.63
2022-09-07T03:31:47.504Z,5.37
2022-09-07T03:34:17.862Z,5.97
2022-09-07T03:36:45.731Z,6.10
2022-09-07T03:39:14.130Z,5.37
2022-09-07T03:41:42.052Z,6.13
2022-09-07T03:44:09.919Z,6.17
2022-09-07T03:46:37.794Z,5.73
2022-09-07T03:49:05.667Z,5.77
2022-09-07T03:51:34.844Z,12.03
2022-09-07T03:54:02.755Z,5.93
2022-09-07T03:56:30.708Z,10.43
2022-09-07T03:58:58.558Z,6.30
2022-09-07T04:01:27.488Z,6.53
2022-09-07T04:04:02.146Z,8.67
2022-09-07T04:06:31.411Z,8.67
2022-09-07T04:09:02.814Z,7.73
2022-09-07T04:11:31.845Z,7.23
2022-09-07T04:13:59.783Z,7.30
2022-09-07T04:16:28.821Z,8.10
2022-09-07T04:18:59.018Z,6.50
2022-09-07T04:21:29.209Z,9.37
2022-09-07T04:23:58.076Z,6.30
2022-09-07T04:26:29.222Z,7.93
2022-09-07T04:28:57.225Z,7.23
2022-09-07T04:31:25.702Z,9.60
2022-09-07T04:33:53.900Z,5.77
2022-09-07T04:36:22.063Z,6.97
2022-09-07T04:38:55.795Z,7.10
2022-09-07T04:41:24.498Z,6.40
2022-09-07T04:43:56.448Z,6.50
2022-09-07T04:46:26.626Z,7.47
2022-09-07T04:48:56.134Z,11.30
2022-09-07T04:51:28.630Z,11.13
2022-09-07T04:53:57.894Z,9.63
2022-09-07T04:56:26.393Z,8.33
2022-09-07T04:58:56.170Z,9.30
2022-09-07T05:01:26.009Z,8.27
2022-09-07T05:03:54.500Z,8.33
2022-09-07T05:06:23.801Z,9.17
2022-09-07T05:08:53.829Z,9.40
2022-09-07T05:11:28.356Z,9.20
2022-09-07T05:13:59.085Z,10.80
2022-09-07T05:16:27.768Z,12.27
2022-09-07T05:18:57.408Z,11.93
2022-09-07T05:21:26.810Z,13.47
2022-09-07T05:23:56.188Z,14.27
2022-09-07T05:26:29.194Z,13.33
2022-09-07T05:31:50.237Z,12.07
2022-09-07T05:34:33.753Z,8.53
2022-09-07T05:37:02.067Z,9.67
2022-09-07T05:39:30.579Z,9.97
2022-09-07T05:41:58.684Z,9.60
2022-09-07T05:47:11.041Z,9.47
2022-09-07T05:49:38.965Z,11.60
2022-09-07T05:52:07.058Z,9.70
2022-09-07T05:54:35.002Z,10.67
2022-09-07T05:57:03.586Z,10.07
2022-09-07T05:59:32.984Z,11.17
2022-09-07T06:02:01.317Z,11.63
2022-09-07T06:04:29.294Z,13.17
2022-09-07T06:12:32.860Z,14.13
2022-09-07T06:15:02.339Z,19.30
2022-09-07T06:17:31.096Z,15.80
2022-09-07T06:19:59.403Z,19.53
2022-09-07T06:22:31.025Z,16.83
2022-09-07T06:24:59.622Z,14.27
2022-09-07T06:27:27.744Z,15.23
2022-09-07T06:29:55.859Z,17.83
2022-09-07T06:35:13.713Z,12.93
2022-09-07T06:37:42.344Z,16.83
2022-09-07T06:40:11.897Z,17.93
2022-09-07T06:42:39.964Z,19.73
2022-09-07T06:45:11.320Z,14.23
2022-09-07T06:47:41.203Z,14.17
2022-09-07T06:50:10.398Z,20.17
2022-09-07T06:55:27.529Z,16.20
2022-09-07T06:57:55.630Z,16.50
2022-09-07T07:00:23.629Z,22.17
2022-09-07T07:02:53.023Z,18.93
2022-09-07T07:05:21.194Z,16.60
2022-09-07T07:07:49.031Z,17.00
2022-09-07T07:10:19.748Z,21.17
2022-09-07T07:12:50.283Z,19.90
2022-09-07T07:15:18.486Z,16.73
2022-09-07T07:17:51.928Z,22.67
2022-09-07T07:20:25.394Z,21.83
2022-09-07T07:22:53.832Z,18.27
2022-09-07T07:25:21.799Z,19.47
2022-09-07T07:27:50.400Z,24.13
2022-09-07T07:30:20.102Z,22.07
2022-09-07T07:32:48.716Z,18.67
2022-09-07T07:35:19.519Z,20.97
2022-09-07T07:37:49.003Z,24.03
2022-09-07T07:40:19.172Z,23.80
2022-09-07T07:42:51.470Z,21.97
2022-09-07T07:48:07.351Z,22.03
2022-09-07T07:50:35.168Z,17.77
2022-09-07T07:55:53.525Z,17.97
2022-09-07T07:58:22.045Z,18.57
2022-09-07T08:00:57.441Z,20.90
2022-09-07T08:03:26.374Z,21.87
2022-09-07T08:05:54.426Z,20.30
2022-09-07T08:08:24.829Z,24.97
2022-09-07T08:10:52.942Z,22.37
2022-09-07T08:13:21.238Z,22.77
2022-09-07T08:15:49.235Z,21.20
2022-09-07T08:18:18.274Z,16.63
2022-09-07T08:20:47.329Z,19.60
2022-09-07T08:23:15.307Z,16.53
2022-09-07T08:25:52.193Z,18.20
2022-09-07T08:28:20.151Z,15.13
2022-09-07T08:30:48.110Z,18.73
2022-09-07T08:33:15.962Z,18.70
2022-09-07T08:35:43.926Z,17.07
2022-09-07T08:38:12.041Z,18.53
2022-09-07T08:40:40.071Z,18.63
2022-09-07T08:43:17.454Z,19.33
2022-09-07T08:45:48.553Z,19.80
2022-09-07T08:48:20.992Z,15.73
2022-09-07T08:50:56.257Z,18.20
2022-09-07T08:53:25.977Z,16.63
2022-09-07T08:55:58.696Z,16.10
2022-09-07T08:58:51.295Z,14.63
2022-09-07T09:01:37.108Z,13.67
2022-09-07T09:04:16.566Z,17.63
2022-09-07T09:07:01.172Z,13.30
2022-09-07T09:09:38.665Z,13.53
2022-09-07T09:12:18.414Z,16.00
2022-09-07T09:15:02.089Z,12.13
2022-09-07T09:17:34.539Z,11.67
2022-09-07T09:20:14.544Z,12.13
2022-09-07T09:22:42.783Z,7.67
2022-09-07T09:25:19.762Z,10.10
2022-09-07T09:27:48.079Z,9.27
2022-09-07T09:30:19.619Z,7.97
2022-09-07T09:32:49.318Z,7.30
2022-09-07T09:35:21.622Z,7.40
2022-09-07T09:37:49.521Z,6.53
2022-09-07T09:40:23.518Z,4.83
2022-09-07T09:43:01.788Z,5.67
2022-09-07T09:46:12.249Z,6.10
2022-09-07T09:48:28.535Z,6.20
2022-09-07T09:53:55.921Z,8.50
2022-09-07T09:56:36.087Z,4.13
2022-09-07T10:05:29.058Z,6.50
2022-09-07T10:07:57.793Z,3.13
2022-09-07T10:10:27.986Z,4.37
2022-09-07T10:12:57.136Z,3.97
2022-09-07T10:15:39.264Z,6.30
2022-09-07T10:18:21.156Z,5.10
2022-09-07T10:20:49.007Z,6.77
2022-09-07T10:23:23.121Z,4.53
2022-09-07T10:25:51.086Z,4.53
2022-09-07T10:28:21.157Z,5.50
2022-09-07T10:31:03.272Z,4.53
2022-09-07T10:34:25.808Z,3.93
2022-09-07T10:36:40.925Z,7.37
2022-09-07T10:39:15.089Z,7.20
2022-09-07T10:41:49.602Z,4.93
2022-09-07T10:44:23.729Z,3.67
2022-09-07T10:46:57.847Z,2.60
2022-09-07T10:49:34.163Z,4.53
2022-09-07T10:52:10.333Z,7.63
2022-09-07T10:54:45.778Z,3.87
2022-09-07T10:57:30.262Z,4.23
2022-09-07T11:00:08.549Z,7.57
2022-09-07T11:05:54.396Z,7.20
2022-09-07T11:09:15.196Z,14.37
2022-09-07T11:14:18.363Z,5.80
2022-09-07T11:16:53.001Z,4.30
2022-09-07T11:19:40.262Z,6.33
2022-09-07T11:22:20.297Z,3.73
2022-09-07T11:27:46.437Z,3.37
2022-09-07T11:30:23.420Z,4.53
2022-09-07T11:32:58.682Z,3.57
2022-09-07T11:35:35.257Z,5.17
2022-09-07T11:38:12.611Z,4.20
2022-09-07T11:40:45.696Z,5.07
2022-09-07T11:43:20.685Z,6.47
2022-09-07T11:45:53.715Z,4.53
2022-09-07T11:48:30.374Z,4.87
2022-09-07T11:51:02.008Z,5.90
2022-09-07T11:53:34.902Z,7.00
2022-09-07T11:56:07.282Z,3.07
2022-09-07T11:59:07.323Z,4.43
2022-09-07T12:01:45.017Z,3.90
2022-09-07T12:04:40.432Z,4.77
2022-09-07T12:07:33.429Z,4.23
2022-09-07T12:10:23.719Z,3.70
2022-09-07T12:13:30.733Z,7.47
2022-09-07T12:16:03.667Z,3.70
2022-09-07T12:18:58.005Z,4.27
2022-09-07T12:21:38.730Z,2.10
2022-09-07T12:24:07.170Z,3.20
2022-09-07T12:26:51.399Z,3.47
2022-09-07T12:29:22.843Z,3.83
2022-09-07T12:32:52.369Z,4.70
2022-09-07T12:35:01.614Z,3.00
2022-09-07T12:37:44.008Z,3.97
2022-09-07T12:40:45.223Z,3.40
2022-09-07T12:43:45.939Z,3.63
2022-09-07T12:46:21.654Z,3.57
2022-09-07T12:49:01.002Z,4.57
2022-09-07T12:54:30.631Z,2.23
2022-09-07T13:00:06.122Z,3.97
2022-09-07T13:03:49.568Z,3.37
2022-09-07T13:06:03.245Z,4.13
2022-09-07T13:09:00.611Z,4.07
2022-09-07T13:11:34.890Z,2.93
2022-09-07T13:14:08.748Z,4.50
2022-09-07T13:20:07.250Z,2.87
2022-09-07T13:23:09.267Z,3.93
2022-09-07T13:25:46.283Z,4.03
2022-09-07T13:28:48.849Z,4.00
2022-09-07T13:31:46.158Z,3.10
2022-09-07T13:34:44.599Z,3.43
2022-09-07T13:37:19.318Z,4.67
2022-09-07T13:39:49.573Z,4.17
2022-09-07T13:42:19.996Z,2.70
2022-09-07T13:44:55.474Z,4.67
2022-09-07T13:47:42.301Z,4.67
2022-09-07T13:50:24.932Z,4.10
2022-09-07T13:53:17.051Z,3.27
2022-09-07T13:55:53.523Z,4.27
2022-09-07T13:58:29.023Z,4.50
2022-09-07T14:01:01.290Z,4.93
2022-09-07T14:03:38.956Z,3.97
2022-09-07T14:06:25.443Z,2.93
2022-09-07T14:08:55.152Z,3.47
2022-09-07T14:11:25.044Z,5.13
2022-09-07T14:14:16.691Z,3.33
2022-09-07T14:16:46.777Z,5.17
2022-09-07T14:19:20.561Z,3.17
2022-09-07T14:21:56.527Z,3.93
2022-09-07T14:24:30.161Z,4.67
2022-09-07T14:26:58.434Z,1.80
2022-09-07T14:29:29.999Z,2.80
2022-09-07T14:31:59.240Z,3.77
2022-09-07T14:34:32.147Z,2.97
2022-09-07T14:37:05.007Z,3.97
2022-09-07T14:39:37.401Z,4.37
2022-09-07T14:42:05.915Z,5.80
2022-09-07T14:44:36.756Z,5.50
2022-09-07T14:47:08.904Z,3.43
2022-09-07T14:49:38.211Z,2.40
2022-09-07T14:52:06.594Z,4.00
2022-09-07T14:54:35.342Z,3.00
2022-09-07T14:57:06.586Z,3.23
2022-09-07T14:59:40.803Z,3.70
2022-09-07T15:02:42.100Z,3.83
2022-09-07T15:05:30.296Z,3.20
2022-09-07T15:07:59.248Z,3.30
2022-09-07T15:10:41.228Z,3.77
2022-09-07T15:13:25.879Z,3.63
2022-09-07T15:15:58.865Z,2.87
2022-09-07T15:18:51.782Z,4.23
2022-09-07T15:21:21.479Z,3.43
2022-09-07T15:23:53.918Z,2.20
2022-09-07T15:29:11.675Z,3.50
2022-09-07T15:31:42.551Z,4.00
2022-09-07T15:34:14.275Z,3.40
2022-09-07T15:36:47.532Z,4.20
2022-09-07T15:39:18.330Z,3.37
2022-09-07T15:41:46.470Z,2.27
2022-09-07T15:44:15.015Z,5.37
2022-09-07T15:46:43.452Z,3.37
2022-09-07T15:49:30.928Z,2.87
2022-09-07T15:52:07.242Z,3.20
2022-09-07T15:54:37.153Z,2.80
2022-09-07T15:59:55.227Z,2.80
2022-09-07T16:05:11.608Z,4.67
2022-09-07T16:10:32.652Z,3.47
2022-09-07T16:13:02.423Z,2.07
2022-09-07T16:15:32.011Z,3.03
2022-09-07T16:17:59.874Z,4.60
2022-09-07T16:20:32.075Z,3.70
2022-09-07T16:23:17.386Z,2.23
2022-09-07T16:25:56.981Z,3.20
2022-09-07T16:28:25.622Z,2.97
2022-09-07T16:30:53.898Z,3.00
2022-09-07T16:33:21.933Z,4.60
2022-09-07T16:35:59.495Z,2.10
2022-09-07T16:38:47.310Z,3.97
2022-09-07T16:41:16.851Z,2.97
2022-09-07T16:43:46.116Z,3.40
2022-09-07T16:46:15.866Z,2.93
2022-09-07T16:48:44.363Z,3.70
2022-09-07T16:51:14.396Z,3.07
2022-09-07T16:53:44.261Z,4.47
2022-09-07T16:56:13.635Z,3.10
2022-09-07T16:58:42.941Z,2.63
2022-09-07T17:01:12.506Z,3.07
2022-09-07T17:03:41.248Z,3.67
2022-09-07T17:06:10.887Z,4.47
2022-09-07T17:08:40.104Z,2.23
2022-09-07T17:11:10.903Z,5.93
2022-09-07T17:13:40.343Z,3.73
2022-09-07T17:16:10.890Z,4.17
2022-09-07T17:21:31.265Z,5.00
2022-09-07T17:24:01.725Z,3.10
2022-09-07T17:26:33.639Z,4.13
2022-09-07T17:29:01.892Z,5.13
2022-09-07T17:34:20.495Z,3.20
2022-09-07T17:36:48.365Z,3.83
2022-09-07T17:39:18.058Z,4.83
2022-09-07T17:41:48.007Z,3.43
2022-09-07T17:44:16.060Z,2.90
2022-09-07T17:46:43.939Z,5.97
2022-09-07T17:49:14.362Z,3.70
2022-09-07T17:51:42.221Z,4.37
2022-09-07T17:54:13.748Z,3.20
2022-09-07T17:56:42.565Z,5.30
2022-09-07T18:01:59.959Z,5.03
2022-09-07T18:04:28.657Z,3.77
2022-09-07T18:06:56.764Z,5.20
2022-09-07T18:09:24.632Z,5.93
2022-09-07T18:11:52.475Z,5.80
2022-09-07T18:14:21.833Z,6.27
2022-09-07T18:16:51.354Z,4.20
2022-09-07T18:19:20.387Z,3.47
2022-09-07T18:21:49.060Z,4.70
2022-09-07T18:24:19.910Z,5.60
2022-09-07T18:26:50.366Z,4.47
2022-09-07T18:29:28.849Z,4.80
2022-09-07T18:31:59.618Z,4.00
2022-09-07T18:34:28.440Z,4.27
2022-09-07T18:36:58.052Z,5.60
2022-09-07T18:39:26.032Z,5.50
2022-09-07T18:41:54.998Z,3.43
2022-09-07T18:47:22.322Z,7.60
2022-09-07T18:49:51.860Z,4.50
2022-09-07T18:55:09.761Z,9.07
2022-09-07T18:57:37.860Z,6.47
2022-09-07T19:00:07.287Z,4.70
2022-09-07T19:02:36.633Z,5.10
2022-09-07T19:07:53.035Z,7.00
2022-09-07T19:10:20.951Z,4.33
2022-09-07T19:12:49.028Z,4.67
2022-09-07T19:15:17.033Z,4.47
2022-09-07T19:17:46.167Z,4.63
2022-09-07T19:20:13.971Z,4.00
2022-09-07T19:22:42.780Z,4.13
2022-09-07T19:25:11.272Z,4.10
2022-09-07T19:27:39.201Z,4.90
2022-09-07T19:30:07.780Z,3.63
2022-09-07T19:32:35.576Z,4.27
2022-09-07T19:35:05.137Z,4.83
2022-09-07T19:37:33.057Z,5.07
2022-09-07T19:40:01.384Z,4.87
2022-09-07T19:42:29.511Z,4.43
2022-09-07T19:44:57.355Z,4.97
2022-09-07T19:47:25.318Z,3.90
2022-09-07T19:49:53.347Z,4.33
2022-09-07T19:52:22.534Z,4.03
2022-09-07T19:54:50.495Z,4.20
2022-09-07T19:57:18.345Z,4.67
2022-09-07T19:59:47.150Z,4.73
2022-09-07T20:02:15.022Z,4.50
2022-09-07T20:04:42.810Z,3.67
2022-09-07T20:07:10.663Z,4.97
2022-09-07T20:09:39.902Z,3.97
2022-09-07T20:12:09.456Z,2.93
2022-09-07T20:14:37.323Z,3.47
2022-09-07T20:17:05.195Z,3.37
2022-09-07T20:19:33.029Z,5.20
2022-09-07T20:22:00.869Z,3.67
2022-09-07T20:24:28.678Z,4.83
2022-09-07T20:26:57.862Z,2.73
2022-09-07T20:29:28.640Z,5.27
2022-09-07T20:31:57.872Z,5.53
2022-09-07T20:34:26.137Z,3.67
2022-09-07T20:36:54.543Z,3.87
2022-09-07T20:39:22.666Z,2.37
2022-09-07T20:41:50.627Z,4.10
2022-09-07T20:44:19.814Z,3.77
2022-09-07T20:46:47.726Z,3.37
2022-09-07T20:49:15.636Z,4.10
2022-09-07T20:51:43.521Z,5.97
2022-09-07T20:54:11.707Z,5.27
2022-09-07T20:56:39.561Z,4.73
2022-09-07T20:59:07.552Z,2.93
2022-09-07T21:01:36.914Z,4.27
2022-09-07T21:04:06.053Z,5.30
2022-09-07T21:06:34.073Z,3.27
2022-09-07T21:09:02.028Z,4.97
2022-09-07T21:11:34.835Z,4.47
2022-09-07T21:14:06.013Z,3.17
2022-09-07T21:16:33.958Z,5.23
2022-09-07T21:19:04.878Z,5.53
2022-09-07T21:21:38.632Z,3.43
2022-09-07T21:24:07.981Z,3.20
2022-09-07T21:26:36.531Z,4.07
2022-09-07T21:29:05.939Z,4.60
2022-09-07T21:31:34.558Z,6.43
2022-09-07T21:34:03.833Z,3.83
2022-09-07T21:36:31.872Z,5.37
2022-09-07T21:38:59.661Z,3.70
2022-09-07T21:41:27.657Z,4.83
2022-09-07T21:43:56.382Z,5.20
2022-09-07T21:46:24.692Z,7.67
2022-09-07T21:48:52.907Z,5.23
2022-09-07T21:51:22.340Z,5.03
2022-09-07T21:53:52.919Z,3.97
2022-09-07T21:56:21.085Z,4.60
2022-09-07T21:58:49.271Z,3.13
2022-09-07T22:01:18.529Z,4.23
2022-09-07T22:03:47.651Z,4.77
2022-09-07T22:06:15.842Z,3.80
2022-09-07T22:08:45.315Z,6.43
2022-09-07T22:11:15.111Z,5.20
2022-09-07T22:13:43.647Z,5.10
2022-09-07T22:16:12.235Z,8.17
2022-09-07T22:18:40.431Z,4.10
2022-09-07T22:21:11.116Z,6.17
2022-09-07T22:23:41.228Z,4.67
2022-09-07T22:26:10.820Z,6.00
2022-09-07T22:28:39.507Z,9.60
2022-09-07T22:31:12.666Z,3.60
2022-09-07T22:33:41.358Z,4.27
2022-09-07T22:36:11.463Z,3.83
2022-09-07T22:38:40.031Z,4.60
2022-09-07T22:41:10.579Z,2.97
2022-09-07T22:43:38.936Z,5.30
2022-09-07T22:46:06.878Z,5.00
2022-09-07T22:48:34.917Z,5.00
2022-09-07T22:51:03.400Z,3.03
2022-09-07T22:53:33.313Z,5.70
2022-09-07T22:56:05.834Z,5.27
2022-09-07T22:58:35.421Z,5.60
2022-09-07T23:01:03.575Z,6.20
2022-09-07T23:03:33.062Z,4.80
2022-09-07T23:06:01.506Z,4.63
2022-09-07T23:08:29.679Z,5.40
2022-09-07T23:11:04.087Z,5.20
2022-09-07T23:13:32.049Z,6.00
2022-09-07T23:16:06.258Z,8.37
2022-09-07T23:18:35.467Z,6.83
2022-09-07T23:21:03.611Z,8.60
2022-09-07T23:23:31.698Z,5.27
2022-09-07T23:26:03.009Z,5.83
2022-09-07T23:28:32.077Z,5.97
2022-09-07T23:31:00.433Z,6.60
2022-09-07T23:33:29.903Z,4.60
2022-09-07T23:35:59.073Z,8.60
2022-09-07T23:38:27.616Z,6.57
2022-09-07T23:40:56.820Z,6.00
2022-09-07T23:43:27.092Z,9.50
2022-09-07T23:45:55.705Z,8.07
2022-09-07T23:48:24.559Z,12.73
2022-09-07T23:50:53.972Z,8.90
2022-09-07T23:53:22.934Z,8.70
2022-09-07T23:55:51.852Z,7.60
2022-09-07T23:58:21.000Z,7.93
